Flight Track Log - Related Links

Times and Time Zones

All times are in EDT time to prevent confusion due to time zone crossing. See the PDT4226 flight status page for this flight to view local times or setup timezone preferences in your user account.


Time Position Orientation Groundspeed Altitude Reporting Facility
EDT Latitude Longitude Course Direction KTS MPH feet Rate Location/Type
Wed 12:13:41 PM 39.8833 -75.2000 293° West 124 143 700  Level Philadelphia TRACON
Wed 12:14:42 PM 39.9167 -75.1833 21° North 130 150 2,300 1,559 Climbing Philadelphia TRACON
Wed 12:15:48 PM 39.9500 -75.1500 37° Northeast 153 176 4,000 1,524 Climbing Philadelphia TRACON
Wed 12:16:00 PM 40.0700 -75.3014 323° Northwest  Level Estimated
Wed 12:16:48 PM 39.9833 -75.1500 360° North 173 199 5,500  Level Philadelphia TRACON
Wed 12:17:00 PM 40.1359 -75.3216 311° West  Level Estimated
Wed 12:17:48 PM 40.0167 -75.1833 323° Northwest 170 196 6,800  Level Philadelphia TRACON
Wed 12:18:00 PM 40.2018 -75.3419 311° West  Level Estimated
Wed 12:18:48 PM 40.0500 -75.2333 311° West 180 207 8,300  Level Philadelphia TRACON
Wed 12:19:00 PM 40.2281 -75.4236 293° West  Level FlightAware Approximate
Wed 12:19:54 PM 40.0833 -75.3000 303° West 183 211 9,000  Level Philadelphia TRACON
Wed 12:21:52 PM 40.1367 -75.4192 300° West 210 242 9,000 34 Level New York Center
Wed 12:22:52 PM 40.1736 -75.4842 307° West 210 242 9,100 500 Climbing New York Center
Wed 12:23:52 PM 40.2111 -75.5328 315° West 210 242 10,000 950 Climbing New York Center
Wed 12:24:52 PM 40.2461 -75.5950 306° West 205 236 11,000 1,000 Climbing New York Center
Wed 12:25:52 PM 40.2794 -75.6492 309° West 200 230 12,000 500 Climbing New York Center
Wed 12:26:52 PM 40.3167 -75.7061 311° West 194 223 12,000 250 Level New York Center
Wed 12:27:52 PM 40.3608 -75.7475 324° Northwest 211 243 12,500 700 Climbing New York Center
Wed 12:28:52 PM 40.4181 -75.7761 339° North 216 249 13,400 750 Climbing New York Center
Wed 12:29:52 PM 40.4792 -75.8078 338° Northwest 216 249 14,000 300 Climbing New York Center
Wed 12:30:52 PM 40.5422 -75.8425 337° Northwest 229 264 14,000  Level New York Center
Wed 12:31:52 PM 40.6075 -75.8775 338° Northwest 242 278 14,000  Level New York Center
Wed 12:32:52 PM 40.6683 -75.9119 337° Northwest 249 287 14,000  Level New York Center
Wed 12:33:52 PM 40.7442 -75.9453 342° North 254 292 14,000  Level New York Center
Wed 12:34:52 PM 40.8031 -75.9797 336° Northwest 254 292 14,000  Level New York Center
Wed 12:35:52 PM 40.8742 -76.0181 338° Northwest 254 292 14,000  Level New York Center
Wed 12:36:52 PM 40.9414 -76.0536 338° Northwest 254 292 14,000  Level New York Center
Wed 12:37:52 PM 41.0044 -76.0858 339° North 254 292 14,000  Level New York Center
Wed 12:38:52 PM 41.0697 -76.1186 339° North 254 292 14,000  Level New York Center
Wed 12:39:52 PM 41.1450 -76.1603 337° Northwest 254 292 14,000  Level New York Center
Wed 12:40:52 PM 41.2100 -76.1986 336° Northwest 259 298 14,000  Level New York Center
Wed 12:41:52 PM 41.2825 -76.2044 357° North 249 287 14,000  Level New York Center
Wed 12:42:52 PM 41.3494 -76.1961 North 262 302 14,000  Level New York Center
Wed 12:43:52 PM 41.4244 -76.1967 360° North 267 307 14,000  Level New York Center
Wed 12:44:52 PM 41.5061 -76.1864 North 267 307 14,000 -400 Level New York Center
Wed 12:45:52 PM 41.5856 -76.1819 North 279 321 13,200 -1,000 Descending New York Center
Wed 12:46:52 PM 41.6650 -76.1744 North 279 321 12,000 -1,150 Descending New York Center
Wed 12:47:52 PM 41.7292 -76.1350 25° Northeast 272 313 10,900 -1,200 Descending New York Center
Wed 12:48:52 PM 41.7939 -76.0903 27° Northeast 267 307 9,600 -1,450 Descending New York Center
Wed 12:49:52 PM 41.8606 -76.0400 29° Northeast 257 296 8,000 -1,550 Descending New York Center
Wed 12:50:52 PM 41.9206 -76.0000 26° Northeast 252 290 6,500 -1,500 Descending New York Center
Wed 12:51:52 PM 41.9789 -75.9544 30° Northeast 246 283 5,000 -1,250 Descending New York Center
Wed 12:52:52 PM 42.0303 -75.9194 27° Northeast 233 268 4,000 -550 Descending New York Center
Wed 12:53:52 PM 42.0956 -75.9022 11° North 222 255 3,900 -400 Descending New York Center
Wed 12:54:52 PM 42.1425 -75.9253 340° North 184 212 3,200 -750 Descending New York Center
Wed 12:55:52 PM 42.1747 -75.9531 327° Northwest 155 178 2,400 -600 Descending New York Center
Wed 12:56:52 PM 42.2114 -75.9700 341° North 150 173 2,000 -400 Descending New York Center

Login

Don't have an account? Register now (free) for customized features, flight alerts, and more!